Time;durP1;ratioP1;P1;durP2;ratioP2;P2;SDS_P1;SDS_P2;PMS_P1;PMS_P2;Temp;Humidity;BMP_temperature;BMP_pressure;BME280_temperature;BME280_humidity;BME280_pressure;Samples;Min_cycle;Max_cycle;Signal;HPM_P1;HPM_P2
2023/08/15 00:00:05;;;;;;;13.87;12.77;;;;;;;23.52;85.33;97825.63;5090657;28;20859;-76
2023/08/15 00:02:33;;;;;;;14.43;13.23;;;;;;;23.52;85.46;97832.00;5090929;28;20963;-76
2023/08/15 00:05:00;;;;;;;13.80;12.60;;;;;;;23.62;84.75;97825.59;5090649;28;20530;-76
2023/08/15 00:07:27;;;;;;;13.43;12.53;;;;;;;23.51;85.10;97826.75;5091094;28;20536;-76
2023/08/15 00:09:54;;;;;;;14.27;13.00;;;;;;;23.41;85.92;97822.97;5090537;28;20512;-76
2023/08/15 00:12:21;;;;;;;13.80;12.80;;;;;;;23.25;86.84;97824.22;5091165;28;20476;-75
2023/08/15 00:14:49;;;;;;;14.10;13.00;;;;;;;23.15;86.89;97821.53;5046372;28;1267312;-76
2023/08/15 00:17:16;;;;;;;13.97;12.97;;;;;;;23.31;86.28;97822.25;5091321;28;20537;-76
2023/08/15 00:19:43;;;;;;;13.50;12.40;;;;;;;23.23;86.91;97826.47;5091686;28;20476;-75
2023/08/15 00:22:10;;;;;;;14.37;13.37;;;;;;;23.14;86.89;97825.41;5091604;28;20552;-76
2023/08/15 00:24:37;;;;;;;14.80;13.60;;;;;;;23.15;87.25;97827.06;5091560;28;20450;-76
2023/08/15 00:27:04;;;;;;;15.03;13.87;;;;;;;23.05;87.40;97824.41;5091680;28;20483;-76
2023/08/15 00:29:31;;;;;;;14.73;13.53;;;;;;;23.10;87.27;97825.16;5091789;28;20458;-76
2023/08/15 00:32:00;;;;;;;16.00;14.80;;;;;;;22.81;88.42;97821.53;5091573;28;20475;-76
2023/08/15 00:34:27;;;;;;;16.23;15.03;;;;;;;22.70;89.08;97831.78;5091189;28;20450;-76
2023/08/15 00:36:54;;;;;;;15.43;14.03;;;;;;;22.81;88.82;97820.69;5091109;28;20936;-76
2023/08/15 00:39:21;;;;;;;15.60;14.30;;;;;;;22.94;88.34;97831.09;5091078;28;20489;-76
2023/08/15 00:41:48;;;;;;;15.07;13.87;;;;;;;22.85;88.56;97828.13;5091564;28;20483;-76
2023/08/15 00:44:15;;;;;;;16.93;15.73;;;;;;;22.68;89.43;97822.97;5090578;28;20449;-76
2023/08/15 00:46:43;;;;;;;17.43;16.03;;;;;;;22.50;89.77;97825.56;5090798;28;20819;-76
2023/08/15 00:49:11;;;;;;;18.87;17.00;;;;;;;22.39;90.53;97822.03;5091234;28;20584;-76
2023/08/15 00:51:39;;;;;;;17.50;16.03;;;;;;;22.37;90.60;97821.50;5090907;28;20442;-76
2023/08/15 00:54:07;;;;;;;17.47;16.10;;;;;;;22.24;90.93;97811.91;5090903;28;20503;-76
2023/08/15 00:56:36;;;;;;;15.87;14.80;;;;;;;22.29;91.56;97817.41;5091002;28;20453;-76
2023/08/15 00:59:03;;;;;;;15.27;14.23;;;;;;;22.34;91.58;97811.88;5090859;28;21111;-76
2023/08/15 01:01:31;;;;;;;15.00;13.80;;;;;;;22.28;91.69;97812.16;5090901;28;20485;-75
2023/08/15 01:03:58;;;;;;;16.50;15.20;;;;;;;22.16;92.14;97815.25;5090649;28;20445;-75
2023/08/15 01:06:27;;;;;;;16.80;15.60;;;;;;;22.03;92.66;97815.88;5091116;28;20473;-76
2023/08/15 01:08:55;;;;;;;16.87;15.67;;;;;;;22.05;92.52;97814.47;5090335;28;20535;-76
2023/08/15 01:11:22;;;;;;;18.77;17.23;;;;;;;21.91;93.33;97810.63;5090813;28;20445;-75
2023/08/15 01:13:59;;;;;;;18.17;16.87;;;;;;;21.87;93.98;97806.78;5090560;28;20813;-76
2023/08/15 01:16:30;;;;;;;18.90;17.57;;;;;;;21.89;93.71;97801.81;5090600;28;20444;-76
2023/08/15 01:19:01;;;;;;;16.80;15.60;;;;;;;21.97;93.43;97803.16;5090493;28;20489;-76
2023/08/15 01:21:33;;;;;;;17.67;16.47;;;;;;;21.94;93.21;97809.25;5090729;28;20594;-76
2023/08/15 01:24:02;;;;;;;16.80;15.70;;;;;;;21.88;93.34;97813.94;5090269;28;20450;-76
2023/08/15 01:26:30;;;;;;;16.40;15.10;;;;;;;21.84;93.88;97806.50;5090744;28;20445;-76
2023/08/15 01:28:57;;;;;;;18.60;17.17;;;;;;;21.76;93.79;97806.00;5089711;28;20476;-76
2023/08/15 01:31:31;;;;;;;16.93;15.63;;;;;;;21.84;94.18;97801.00;5090657;28;20449;-76
2023/08/15 01:34:05;;;;;;;18.40;17.00;;;;;;;21.78;94.19;97805.69;5090402;28;20948;-76
2023/08/15 01:36:34;;;;;;;21.10;19.40;;;;;;;21.65;94.68;97803.53;5089941;28;20445;-76
2023/08/15 01:39:05;;;;;;;20.73;19.03;;;;;;;21.71;94.54;97802.44;5089817;28;20520;-75
2023/08/15 01:41:33;;;;;;;21.00;19.40;;;;;;;21.69;94.83;97799.97;5090311;28;20443;-76
2023/08/15 01:44:01;;;;;;;19.67;18.27;;;;;;;21.71;94.24;97800.50;5089773;28;20542;-76
2023/08/15 01:46:28;;;;;;;17.83;16.53;;;;;;;21.74;94.08;97807.38;5090328;28;20539;-75
2023/08/15 01:48:57;;;;;;;23.70;21.97;;;;;;;21.67;94.30;97802.16;5089981;28;20556;-76
2023/08/15 01:51:24;;;;;;;24.33;22.40;;;;;;;21.54;94.82;97799.16;5089869;28;20460;-76
2023/08/15 01:53:52;;;;;;;23.93;22.03;;;;;;;21.51;95.35;97796.94;5089914;28;20536;-76
2023/08/15 01:56:21;;;;;;;19.83;18.43;;;;;;;21.56;95.25;97788.69;5089791;28;20498;-75
2023/08/15 01:58:48;;;;;;;24.07;22.47;;;;;;;21.46;95.70;97793.09;5089532;28;20480;-75
2023/08/15 02:01:15;;;;;;;23.37;21.67;;;;;;;21.49;95.72;97785.38;5090153;28;20446;-75
2023/08/15 02:03:43;;;;;;;19.90;18.20;;;;;;;21.54;95.52;97790.91;5089590;28;20472;-75
2023/08/15 02:06:10;;;;;;;22.77;21.13;;;;;;;21.50;95.66;97789.78;5089831;28;20456;-75
2023/08/15 02:08:37;;;;;;;23.13;21.53;;;;;;;21.58;95.57;97811.28;5089768;28;20481;-75
2023/08/15 02:11:04;;;;;;;20.60;19.10;;;;;;;21.53;95.49;97800.25;5090083;28;20453;-76
2023/08/15 02:13:33;;;;;;;20.97;19.40;;;;;;;21.50;95.22;97800.81;5089081;28;20974;-75
2023/08/15 02:16:01;;;;;;;21.40;19.70;;;;;;;21.37;96.11;97794.78;5089958;28;20437;-76
2023/08/15 02:18:29;;;;;;;21.73;20.10;;;;;;;21.39;96.53;97789.84;5089666;28;20980;-76
2023/08/15 02:20:56;;;;;;;21.87;20.27;;;;;;;21.42;96.03;97794.78;5089254;28;20457;-76
2023/08/15 02:23:24;;;;;;;21.20;19.70;;;;;;;21.30;96.02;97799.75;5089749;28;20449;-76
2023/08/15 02:25:51;;;;;;;20.80;19.23;;;;;;;21.28;96.18;97799.19;5089676;28;20457;-76
2023/08/15 02:28:18;;;;;;;22.03;20.33;;;;;;;21.18;96.49;97796.41;5089769;28;20461;-76
2023/08/15 02:30:47;;;;;;;22.73;20.70;;;;;;;21.35;95.64;97799.75;5089819;28;20510;-76
2023/08/15 02:33:14;;;;;;;20.23;18.63;;;;;;;21.39;95.27;97800.03;5090002;28;20453;-76
2023/08/15 02:35:42;;;;;;;21.40;20.00;;;;;;;21.36;95.18;97804.16;5088892;28;20524;-75
2023/08/15 02:38:10;;;;;;;20.57;19.07;;;;;;;21.20;95.89;97794.22;5089341;28;20488;-74
2023/08/15 02:40:37;;;;;;;21.63;20.03;;;;;;;21.23;96.15;97795.63;5089512;28;20543;-77
2023/08/15 02:43:04;;;;;;;20.17;18.43;;;;;;;21.31;96.02;97797.81;5089625;28;20580;-76
2023/08/15 02:45:32;;;;;;;17.33;15.97;;;;;;;21.34;95.43;97798.09;5089422;28;20509;-76
2023/08/15 02:48:00;;;;;;;19.70;18.20;;;;;;;21.37;95.56;97797.53;5089284;28;20966;-75
2023/08/15 02:50:27;;;;;;;18.60;17.30;;;;;;;21.38;95.22;97788.19;5089431;28;20449;-76
2023/08/15 02:52:55;;;;;;;19.00;17.50;;;;;;;21.27;95.45;97785.72;5089365;28;20448;-76
2023/08/15 02:55:22;;;;;;;19.33;17.93;;;;;;;21.22;95.30;97783.78;5088967;28;21013;-76
2023/08/15 02:57:49;;;;;;;15.93;14.83;;;;;;;21.24;95.10;97789.03;5089377;28;20453;-76
2023/08/15 03:00:16;;;;;;;17.23;16.00;;;;;;;21.44;94.57;97803.56;5088629;28;20455;-75
2023/08/15 03:02:44;;;;;;;16.97;15.77;;;;;;;21.52;94.49;97799.44;5088659;28;20961;-76
2023/08/15 03:05:12;;;;;;;17.83;16.50;;;;;;;21.40;94.69;97799.75;5089175;28;20457;-76
2023/08/15 03:07:39;;;;;;;17.77;16.50;;;;;;;21.23;95.20;97790.13;5090419;28;20445;-76
2023/08/15 03:10:07;;;;;;;17.03;15.83;;;;;;;21.24;94.83;97780.75;5092847;28;20456;-76
2023/08/15 03:12:35;;;;;;;16.93;15.60;;;;;;;21.13;95.01;97777.16;5093244;28;20456;-75
2023/08/15 03:15:02;;;;;;;16.87;15.77;;;;;;;21.21;95.26;97786.81;5092677;28;20509;-76
2023/08/15 03:17:29;;;;;;;16.33;15.03;;;;;;;21.25;95.07;97794.25;5092478;28;20460;-75
2023/08/15 03:19:58;;;;;;;15.77;14.57;;;;;;;21.28;94.41;97796.44;5092845;28;20504;-76
2023/08/15 03:22:26;;;;;;;14.80;13.80;;;;;;;21.41;94.24;97804.16;5092870;28;20935;-76
2023/08/15 03:24:54;;;;;;;16.60;15.30;;;;;;;21.31;94.11;97798.66;5092482;28;20449;-75
2023/08/15 03:27:21;;;;;;;14.90;13.90;;;;;;;21.41;93.63;97806.09;5092456;28;20461;-75
2023/08/15 03:29:48;;;;;;;16.93;15.63;;;;;;;21.43;93.62;97806.63;5092344;28;20472;-75
2023/08/15 03:32:15;;;;;;;15.63;14.53;;;;;;;21.44;93.43;97808.28;5092834;28;20451;-75
2023/08/15 03:34:43;;;;;;;16.43;15.20;;;;;;;21.41;93.58;97811.59;5092519;28;20808;-75
2023/08/15 03:37:10;;;;;;;17.07;15.87;;;;;;;21.39;93.46;97814.63;5092220;28;20448;-76
2023/08/15 03:39:39;;;;;;;15.00;13.90;;;;;;;21.35;93.90;97827.28;5092127;28;20489;-75
2023/08/15 03:42:06;;;;;;;15.13;14.07;;;;;;;21.29;93.97;97827.56;5092385;28;20460;-76
2023/08/15 03:44:34;;;;;;;17.20;15.87;;;;;;;21.25;94.09;97827.28;5092012;28;20540;-75
2023/08/15 03:47:01;;;;;;;15.77;14.47;;;;;;;21.38;93.86;97831.41;5092513;28;20621;-75
2023/08/15 03:49:29;;;;;;;16.80;15.70;;;;;;;21.46;93.31;97828.91;5092296;28;20500;-75
2023/08/15 03:51:56;;;;;;;16.33;15.20;;;;;;;21.49;93.22;97826.69;5092095;28;20450;-76
2023/08/15 03:54:23;;;;;;;16.00;14.70;;;;;;;21.42;93.21;97822.31;5092040;28;20449;-76
2023/08/15 03:56:52;;;;;;;17.23;16.10;;;;;;;21.48;93.15;97812.09;5091643;28;20514;-75
2023/08/15 03:59:19;;;;;;;16.67;15.57;;;;;;;21.54;92.55;97812.94;5091836;28;20504;-76
2023/08/15 04:01:47;;;;;;;16.50;15.13;;;;;;;21.57;92.63;97824.22;5092056;28;20455;-75
2023/08/15 04:04:14;;;;;;;14.90;13.90;;;;;;;21.62;92.45;97823.38;5091691;28;20459;-76
2023/08/15 04:06:41;;;;;;;14.70;13.60;;;;;;;21.69;92.00;97837.69;5092243;28;20470;-76
2023/08/15 04:09:09;;;;;;;17.73;16.33;;;;;;;21.33;92.63;97807.47;5091830;28;20473;-76
2023/08/15 04:11:36;;;;;;;15.03;13.93;;;;;;;21.60;92.37;97839.38;5091427;28;20507;-75
2023/08/15 04:14:05;;;;;;;14.10;13.10;;;;;;;21.40;92.82;97849.31;5091084;28;20514;-76
2023/08/15 04:16:32;;;;;;;13.50;12.40;;;;;;;21.48;92.06;97860.84;5091289;28;20787;-75
2023/08/15 04:18:59;;;;;;;13.80;12.70;;;;;;;21.45;92.91;97864.97;5089871;28;20525;-75
2023/08/15 04:21:27;;;;;;;13.60;12.60;;;;;;;21.60;92.42;97855.88;5091178;28;20933;-76
2023/08/15 04:23:54;;;;;;;12.87;11.80;;;;;;;21.51;92.56;97860.31;5090715;28;20446;-75
2023/08/15 04:26:21;;;;;;;12.83;11.97;;;;;;;21.73;91.46;97866.34;5091302;28;20453;-76
2023/08/15 04:28:49;;;;;;;13.93;12.90;;;;;;;21.72;91.52;97872.97;5090670;28;21003;-75
2023/08/15 04:31:18;;;;;;;12.63;11.73;;;;;;;21.65;91.73;97877.94;5091175;28;20461;-75
2023/08/15 04:33:45;;;;;;;15.27;14.07;;;;;;;21.62;91.96;97859.19;5090657;28;20445;-75
2023/08/15 04:36:13;;;;;;;14.60;13.47;;;;;;;21.64;91.47;97857.00;5090737;28;20437;-76
2023/08/15 04:38:40;;;;;;;14.27;12.97;;;;;;;21.56;91.96;97861.13;5090864;28;20467;-75
2023/08/15 04:41:07;;;;;;;15.63;14.23;;;;;;;21.61;91.94;97860.31;5090957;28;20540;-75
2023/08/15 04:43:34;;;;;;;14.30;13.40;;;;;;;21.53;91.95;97872.69;5090473;28;20990;-76
2023/08/15 04:46:02;;;;;;;13.57;12.67;;;;;;;21.69;91.66;97871.59;5091016;28;20457;-75
2023/08/15 04:48:30;;;;;;;14.87;13.77;;;;;;;21.76;90.86;97876.81;5090493;28;20984;-75
2023/08/15 04:50:58;;;;;;;14.13;13.23;;;;;;;21.73;91.00;97889.22;5090445;28;20449;-76
2023/08/15 04:53:25;;;;;;;13.47;12.57;;;;;;;21.62;91.79;97881.22;5090325;28;20545;-76
2023/08/15 04:55:52;;;;;;;15.37;14.27;;;;;;;21.60;91.66;97881.50;5090556;28;20453;-76
2023/08/15 04:58:20;;;;;;;16.57;15.47;;;;;;;21.35;92.53;97882.34;5090359;28;20484;-76
2023/08/15 05:00:47;;;;;;;14.83;13.83;;;;;;;21.47;92.52;97873.78;5090456;28;20485;-75
2023/08/15 05:03:14;;;;;;;13.47;12.57;;;;;;;21.40;92.51;97871.34;5090286;28;20449;-75
2023/08/15 05:05:43;;;;;;;15.03;13.90;;;;;;;21.48;91.96;97869.13;5089946;28;20487;-75
2023/08/15 05:08:12;;;;;;;15.47;14.27;;;;;;;21.47;92.48;97868.28;5090250;28;20504;-76
2023/08/15 05:10:39;;;;;;;15.63;14.53;;;;;;;21.49;92.07;97879.84;5089969;28;20450;-76
2023/08/15 05:13:06;;;;;;;13.70;12.70;;;;;;;21.59;91.71;97887.28;5090193;28;20448;-75
2023/08/15 05:15:34;;;;;;;13.77;12.70;;;;;;;21.53;92.37;97902.16;5089542;28;20828;-75
2023/08/15 05:18:01;;;;;;;14.73;13.70;;;;;;;21.53;92.43;97913.19;5090022;28;20469;-75
2023/08/15 05:20:29;;;;;;;15.57;14.40;;;;;;;21.55;91.79;97914.56;5089803;28;20493;-76
2023/08/15 05:22:58;;;;;;;17.00;15.70;;;;;;;21.54;92.23;97912.91;5090090;28;20457;-76
2023/08/15 05:25:25;;;;;;;14.10;13.10;;;;;;;21.62;91.89;97914.28;5089805;28;20472;-76
2023/08/15 05:27:53;;;;;;;16.17;14.97;;;;;;;21.62;91.70;97914.28;5089591;28;20530;-75
2023/08/15 05:30:20;;;;;;;17.33;15.87;;;;;;;21.51;92.26;97918.13;5089390;28;20971;-76
2023/08/15 05:32:47;;;;;;;15.40;14.40;;;;;;;21.57;92.02;97906.03;5089946;28;20461;-75
2023/08/15 05:35:15;;;;;;;16.40;15.40;;;;;;;21.55;92.09;97908.22;5089663;28;20457;-75
2023/08/15 05:37:42;;;;;;;16.10;15.00;;;;;;;21.46;92.59;97911.53;5089898;28;20480;-75
2023/08/15 05:40:11;;;;;;;16.47;15.27;;;;;;;21.60;92.07;97914.56;5089611;28;21006;-75
2023/08/15 05:42:39;;;;;;;15.53;14.17;;;;;;;21.65;92.41;97910.97;5089311;28;20960;-76
2023/08/15 05:45:07;;;;;;;14.60;13.43;;;;;;;21.83;91.49;97918.66;5089471;28;20463;-76
2023/08/15 05:47:34;;;;;;;16.37;15.17;;;;;;;21.90;91.16;97915.63;5089602;28;20473;-75
2023/08/15 05:50:01;;;;;;;13.00;12.10;;;;;;;22.03;90.43;97920.63;5089241;28;20961;-75
2023/08/15 05:52:28;;;;;;;12.93;12.03;;;;;;;22.25;89.51;97928.53;5089706;28;20473;-76
2023/08/15 05:54:56;;;;;;;12.53;11.53;;;;;;;22.32;89.02;97935.41;5089177;28;20980;-76
2023/08/15 05:57:24;;;;;;;11.70;10.80;;;;;;;22.40;88.43;97953.31;5089505;28;20494;-76
2023/08/15 05:59:51;;;;;;;13.00;11.90;;;;;;;22.77;87.68;97953.72;5089224;28;20481;-76
2023/08/15 06:02:19;;;;;;;11.53;10.63;;;;;;;22.83;86.45;97956.47;5089727;28;20535;-76
2023/08/15 06:04:46;;;;;;;12.60;11.60;;;;;;;22.89;86.04;97949.84;5089114;28;20456;-76
2023/08/15 06:07:12;;;;;;;10.90;10.20;;;;;;;23.00;85.21;97959.72;5089222;28;20446;-76
2023/08/15 06:09:39;;;;;;;11.50;10.60;;;;;;;23.16;83.92;97952.97;5089533;28;20548;-76
2023/08/15 06:12:07;;;;;;;10.50;9.60;;;;;;;23.20;83.43;97956.00;5089468;28;20488;-76
2023/08/15 06:14:39;;;;;;;10.27;9.37;;;;;;;23.32;83.73;97949.03;5088729;28;20457;-75
2023/08/15 06:17:06;;;;;;;10.67;9.70;;;;;;;23.41;83.27;97965.78;5089267;28;20436;-76
2023/08/15 06:19:33;;;;;;;10.33;9.50;;;;;;;23.42;83.26;97962.75;5089434;28;20479;-76
2023/08/15 06:21:59;;;;;;;11.70;10.80;;;;;;;23.55;82.56;97968.78;5089591;28;20454;-76
2023/08/15 06:24:26;;;;;;;9.77;8.87;;;;;;;23.79;81.43;97972.44;5088868;28;20448;-76
2023/08/15 06:26:53;;;;;;;9.73;9.03;;;;;;;23.88;81.11;97979.00;5089177;28;20525;-76
2023/08/15 06:29:20;;;;;;;9.47;8.77;;;;;;;23.82;78.15;97979.34;5089287;28;20560;-76
2023/08/15 06:31:48;;;;;;;9.23;8.53;;;;;;;23.88;78.69;97978.19;5089135;28;20779;-76
2023/08/15 06:34:14;;;;;;;8.63;7.93;;;;;;;23.92;79.94;97970.97;5088702;28;20454;-76
2023/08/15 06:36:41;;;;;;;9.80;9.00;;;;;;;24.17;78.89;97980.97;5088782;28;20975;-76
2023/08/15 06:39:08;;;;;;;9.23;8.47;;;;;;;24.20;79.26;97983.97;5089042;28;20528;-76
2023/08/15 06:41:35;;;;;;;8.90;8.30;;;;;;;24.43;78.60;97985.13;5088840;28;20556;-76
2023/08/15 06:44:02;;;;;;;9.60;9.00;;;;;;;24.70;77.47;97985.38;5092597;28;20631;-76
2023/08/15 06:46:28;;;;;;;9.17;8.40;;;;;;;25.19;75.56;97980.66;5093333;28;20436;-76
2023/08/15 06:48:57;;;;;;;9.87;9.10;;;;;;;25.86;72.39;97990.47;5092788;28;20457;-76
2023/08/15 06:51:23;;;;;;;10.00;9.30;;;;;;;26.81;68.83;97985.41;5092802;28;20976;-75
2023/08/15 06:53:52;;;;;;;8.60;7.90;;;;;;;26.76;68.59;97976.03;5092728;28;20560;-76
2023/08/15 06:56:19;;;;;;;8.53;7.87;;;;;;;27.40;65.56;98001.09;5092617;28;20441;-76
2023/08/15 06:58:46;;;;;;;10.23;9.10;;;;;;;27.87;63.40;97999.75;5092788;28;20845;-76
2023/08/15 07:01:13;;;;;;;7.87;7.03;;;;;;;28.16;63.19;97995.69;5092824;28;20489;-74
2023/08/15 07:03:39;;;;;;;8.30;7.60;;;;;;;28.66;59.36;97994.34;5092649;28;20448;-76
2023/08/15 07:06:07;;;;;;;7.87;6.60;;;;;;;28.36;59.25;97998.78;5092804;28;20545;-76
2023/08/15 07:08:34;;;;;;;7.20;6.50;;;;;;;28.78;57.67;97993.75;5092157;28;20537;-76
2023/08/15 07:11:01;;;;;;;8.13;6.90;;;;;;;29.39;56.21;97995.56;5092549;28;20882;-76
2023/08/15 07:13:28;;;;;;;7.20;6.63;;;;;;;29.25;55.05;97994.88;5092353;28;20453;-76
2023/08/15 07:15:55;;;;;;;6.60;6.10;;;;;;;29.95;53.48;98002.19;5092859;28;20476;-77
2023/08/15 07:18:23;;;;;;;6.60;6.10;;;;;;;29.10;54.95;98000.94;5092352;28;20473;-76
2023/08/15 07:20:50;;;;;;;7.60;6.97;;;;;;;28.33;57.84;98002.19;5092157;28;20584;-77
2023/08/15 07:23:18;;;;;;;6.97;6.37;;;;;;;27.68;59.80;98007.44;5092200;28;21297;-76
2023/08/15 07:25:45;;;;;;;7.70;6.97;;;;;;;27.76;60.32;98003.91;5091855;28;20479;-76
2023/08/15 07:28:12;;;;;;;7.40;6.80;;;;;;;27.86;59.56;98000.06;5092446;28;20473;-76
2023/08/15 07:30:41;;;;;;;6.93;6.40;;;;;;;28.17;58.87;97997.34;5092092;28;20521;-76
2023/08/15 07:33:08;;;;;;;5.97;5.57;;;;;;;28.88;56.79;97996.28;5091977;28;20455;-76
2023/08/15 07:35:35;;;;;;;8.23;7.63;;;;;;;29.08;56.07;97990.09;5091723;28;20495;-76
2023/08/15 07:38:02;;;;;;;7.27;6.57;;;;;;;29.50;56.45;97996.13;5092080;28;20545;-76
2023/08/15 07:40:30;;;;;;;7.10;6.57;;;;;;;29.63;55.06;97997.91;5091819;28;21113;-77
2023/08/15 07:42:57;;;;;;;6.43;5.83;;;;;;;29.40;56.50;98008.41;5091985;28;20438;-76
2023/08/15 07:45:24;;;;;;;6.50;5.97;;;;;;;29.05;56.46;98009.44;5091800;28;20473;-76
2023/08/15 07:47:53;;;;;;;8.67;8.07;;;;;;;28.63;58.46;98016.44;5091673;28;20462;-76
2023/08/15 07:50:22;;;;;;;7.50;6.80;;;;;;;28.69;58.83;98007.63;5091747;28;20449;-76
2023/08/15 07:52:50;;;;;;;8.40;7.70;;;;;;;28.05;59.60;98012.63;5091465;28;20779;-76
2023/08/15 07:55:17;;;;;;;7.37;6.80;;;;;;;27.57;60.65;98017.97;5091533;28;20504;-76
2023/08/15 07:57:45;;;;;;;7.77;7.17;;;;;;;27.61;61.40;98013.47;5091847;28;20556;-76
2023/08/15 08:00:13;;;;;;;7.27;6.77;;;;;;;27.48;61.91;98013.44;5091519;28;20477;-76
2023/08/15 08:02:40;;;;;;;7.73;7.17;;;;;;;27.10;62.66;98003.41;5091847;28;20465;-76
2023/08/15 08:05:09;;;;;;;8.33;7.63;;;;;;;26.75;64.50;97996.63;5091609;28;20473;-76
2023/08/15 08:07:36;;;;;;;8.43;7.83;;;;;;;27.04;63.69;97993.53;5091134;28;20873;-77
2023/08/15 08:10:03;;;;;;;7.13;6.50;;;;;;;26.78;64.90;97990.44;5091695;28;20461;-76
2023/08/15 08:12:30;;;;;;;8.43;7.70;;;;;;;26.60;65.13;97994.16;5091639;28;20449;-76
2023/08/15 08:14:59;;;;;;;8.30;7.60;;;;;;;26.54;65.88;97997.31;5091239;28;21129;-76
2023/08/15 08:17:26;;;;;;;7.53;7.00;;;;;;;26.91;64.57;98001.88;5090571;28;20461;-76
2023/08/15 08:19:53;;;;;;;6.90;6.40;;;;;;;27.35;64.02;97999.25;5091393;28;20444;-76
2023/08/15 08:22:20;;;;;;;8.07;7.50;;;;;;;27.79;61.89;97999.69;5091266;28;20839;-76
2023/08/15 08:24:48;;;;;;;8.60;7.93;;;;;;;28.46;58.93;98002.44;5091048;28;20524;-76
2023/08/15 08:27:15;;;;;;;7.70;7.10;;;;;;;29.75;55.11;98000.06;5091270;28;20516;-76
2023/08/15 08:29:42;;;;;;;7.27;6.60;;;;;;;30.42;53.13;97997.53;5091564;28;20536;-76
2023/08/15 08:32:10;;;;;;;6.97;6.37;;;;;;;31.20;50.41;97988.84;5091107;28;20492;-76
2023/08/15 08:34:37;;;;;;;7.23;6.70;;;;;;;30.87;50.48;97991.47;5090696;28;20457;-74
2023/08/15 08:37:04;;;;;;;6.97;6.27;;;;;;;30.32;51.51;97983.09;5090861;28;21064;-74
2023/08/15 08:39:31;;;;;;;7.10;6.60;;;;;;;30.07;52.69;97982.81;5091155;28;20477;-74
2023/08/15 08:41:58;;;;;;;6.63;6.13;;;;;;;29.61;54.04;97989.06;5090817;28;20485;-74
2023/08/15 08:44:26;;;;;;;6.80;6.30;;;;;;;28.91;56.76;97997.59;5090846;28;20445;-73
2023/08/15 08:46:52;;;;;;;7.37;6.87;;;;;;;28.64;58.72;97991.06;5090975;28;20445;-74
2023/08/15 08:49:21;;;;;;;6.67;6.17;;;;;;;28.55;58.26;97993.00;5090453;28;20939;-74
2023/08/15 08:51:49;;;;;;;8.00;7.30;;;;;;;28.29;59.20;98001.19;5090733;28;20532;-74
2023/08/15 08:54:15;;;;;;;7.30;6.80;;;;;;;28.10;59.56;98008.91;5090349;28;20445;-73
2023/08/15 08:56:43;;;;;;;7.30;6.77;;;;;;;28.32;59.42;98010.88;5090959;28;20449;-78
2023/08/15 08:59:12;;;;;;;6.43;6.03;;;;;;;28.71;58.09;98016.50;5090510;28;20450;-76
2023/08/15 09:01:39;;;;;;;7.07;6.47;;;;;;;29.32;54.61;98005.56;5090791;28;20542;-76
2023/08/15 09:04:06;;;;;;;7.30;6.67;;;;;;;29.94;53.84;97999.72;5090033;28;20473;-76
2023/08/15 09:06:34;;;;;;;6.07;5.60;;;;;;;30.55;52.68;98006.03;5089892;28;20442;-76
2023/08/15 09:09:01;;;;;;;7.63;6.90;;;;;;;29.97;53.59;98013.84;5090289;28;20471;-76
2023/08/15 09:11:33;;;;;;;6.53;6.03;;;;;;;29.74;54.18;98012.38;5090099;28;20494;-75
2023/08/15 09:14:02;;;;;;;7.93;7.33;;;;;;;29.33;54.79;98016.41;5090200;28;20540;-76
2023/08/15 09:16:29;;;;;;;7.20;6.70;;;;;;;29.22;55.87;98022.63;5090219;28;20456;-76
2023/08/15 09:18:56;;;;;;;6.87;6.37;;;;;;;28.64;57.66;98018.09;5090228;28;20438;-76
2023/08/15 09:21:27;;;;;;;7.00;6.50;;;;;;;28.22;59.29;98027.88;5089965;28;20485;-76
2023/08/15 09:23:56;;;;;;;8.20;7.43;;;;;;;28.05;59.04;98018.22;5090277;28;20453;-76
2023/08/15 09:26:25;;;;;;;7.57;6.97;;;;;;;28.23;59.67;98021.16;5090322;28;20524;-76
2023/08/15 09:28:52;;;;;;;7.90;7.30;;;;;;;28.02;60.03;98027.19;5090246;28;20481;-76
2023/08/15 09:31:19;;;;;;;7.53;7.00;;;;;;;28.12;59.05;98022.50;5089834;28;20870;-77
2023/08/15 09:33:46;;;;;;;7.23;6.63;;;;;;;28.42;57.72;98028.16;5089694;28;20503;-76
2023/08/15 09:36:14;;;;;;;7.27;6.57;;;;;;;28.73;58.24;98022.56;5089902;28;20449;-76
2023/08/15 09:38:41;;;;;;;7.60;7.00;;;;;;;29.04;56.69;98022.56;5089728;28;21047;-76
2023/08/15 09:41:12;;;;;;;7.33;6.73;;;;;;;29.17;56.78;98015.22;5089978;28;20481;-76
2023/08/15 09:43:50;;;;;;;7.70;7.10;;;;;;;29.14;56.87;98013.09;5089726;28;20453;-76
2023/08/15 09:46:17;;;;;;;6.70;6.10;;;;;;;29.06;57.60;98016.66;5090020;28;21012;-78
2023/08/15 09:48:45;;;;;;;7.50;7.00;;;;;;;29.16;56.73;98013.59;5089641;28;20524;-75
2023/08/15 09:51:15;;;;;;;7.73;7.23;;;;;;;29.02;57.39;98018.44;5089913;28;20445;-76
2023/08/15 09:53:42;;;;;;;7.67;7.07;;;;;;;29.05;56.77;98015.84;5089762;28;21127;-76
2023/08/15 09:56:09;;;;;;;7.90;7.23;;;;;;;28.94;56.68;98016.44;5089578;28;20553;-76
2023/08/15 09:58:38;;;;;;;7.83;7.13;;;;;;;29.08;56.26;98023.56;5089502;28;20561;-75
2023/08/15 10:01:06;;;;;;;7.37;6.77;;;;;;;29.10;56.99;98014.88;5089800;28;20994;-78
2023/08/15 10:03:36;;;;;;;8.27;7.50;;;;;;;29.24;56.80;98015.53;5089449;28;20523;-80
2023/08/15 10:06:03;;;;;;;6.87;6.30;;;;;;;29.35;54.74;98016.06;5089633;28;20540;-77
2023/08/15 10:08:30;;;;;;;7.67;7.07;;;;;;;29.97;54.05;98025.00;5089769;28;20468;-75
2023/08/15 10:10:58;;;;;;;7.60;6.90;;;;;;;30.50;51.72;98023.00;5089275;28;20805;-77
2023/08/15 10:13:27;;;;;;;9.83;6.60;;;;;;;31.16;50.91;98024.28;5089325;28;20454;-75
2023/08/15 10:15:55;;;;;;;7.67;6.97;;;;;;;31.70;49.17;98027.25;5089256;28;20801;-78
2023/08/15 10:18:22;;;;;;;6.83;6.33;;;;;;;32.16;47.47;98034.59;5094066;28;20473;-75
2023/08/15 10:20:50;;;;;;;7.00;6.40;;;;;;;31.88;48.01;98025.94;5093515;28;20508;-75
2023/08/15 10:23:24;;;;;;;6.87;6.17;;;;;;;31.24;49.76;98033.75;5093684;28;20499;-74
2023/08/15 10:25:52;;;;;;;7.70;7.00;;;;;;;30.73;50.97;98036.44;5093680;28;20542;-76
2023/08/15 10:28:20;;;;;;;7.70;7.10;;;;;;;30.20;51.60;98038.84;5093497;28;20580;-75
2023/08/15 10:30:47;;;;;;;6.40;5.90;;;;;;;29.97;51.74;98044.53;5093042;28;20437;-76
2023/08/15 10:33:18;;;;;;;4.90;4.10;;;;;;;29.58;43.21;98041.88;5093527;28;20449;-75
2023/08/15 10:35:50;;;;;;;4.87;4.47;;;;;;;29.54;42.16;98040.94;5093242;28;20445;-78
2023/08/15 10:38:19;;;;;;;4.30;4.00;;;;;;;29.54;42.73;98043.72;5093469;28;20483;-76
2023/08/15 10:40:47;;;;;;;4.43;4.03;;;;;;;29.41;43.25;98046.31;5093381;28;20473;-75
2023/08/15 10:43:15;;;;;;;5.83;4.10;;;;;;;29.33;43.87;98044.28;5093093;28;20453;-73
2023/08/15 10:45:44;;;;;;;4.10;3.70;;;;;;;29.17;43.06;98045.06;5092932;28;20940;-73
2023/08/15 10:48:11;;;;;;;4.13;3.73;;;;;;;28.97;44.38;98054.81;5092907;28;20548;-71
2023/08/15 10:50:45;;;;;;;3.80;3.50;;;;;;;28.99;42.88;98047.78;5093017;28;20514;-73
2023/08/15 10:53:12;;;;;;;5.00;3.27;;;;;;;28.95;42.70;98051.53;5093075;28;20441;-73
2023/08/15 10:55:40;;;;;;;4.10;3.13;;;;;;;28.77;43.05;98048.66;5092631;28;20489;-73
2023/08/15 10:58:08;;;;;;;3.87;3.47;;;;;;;28.68;44.32;98058.94;5093162;28;21016;-73
2023/08/15 11:00:36;;;;;;;5.00;3.37;;;;;;;28.90;42.34;98055.31;5092994;28;20523;-74
2023/08/15 11:03:03;;;;;;;3.47;2.90;;;;;;;29.26;40.71;98054.25;5092665;28;20518;-81
2023/08/15 11:05:30;;;;;;;3.23;2.93;;;;;;;28.99;40.34;98049.75;5092716;28;20469;-76
2023/08/15 11:08:11;;;;;;;3.83;3.20;;;;;;;29.41;40.92;98048.28;5092587;28;20479;-79
2023/08/15 11:10:43;;;;;;;3.50;3.20;;;;;;;29.69;39.69;98048.81;5092743;28;20437;-74
2023/08/15 11:13:10;;;;;;;3.50;3.20;;;;;;;30.25;39.21;98045.03;5092778;28;20437;-73
2023/08/15 11:15:37;;;;;;;3.20;2.90;;;;;;;30.60;38.32;98051.41;5092388;28;20534;-73
2023/08/15 11:18:04;;;;;;;3.13;2.80;;;;;;;30.59;38.32;98049.78;5092115;28;20496;-73
2023/08/15 11:20:31;;;;;;;6.50;2.90;;;;;;;30.64;38.49;98041.22;5092192;28;20524;-74
2023/08/15 11:22:58;;;;;;;4.10;3.13;;;;;;;30.54;39.29;98044.34;5092195;28;21034;-74
2023/08/15 11:25:26;;;;;;;5.13;3.30;;;;;;;30.86;38.89;98047.75;5092217;28;20473;-73